createdAt,value
2023-02-11T00:02:09.522Z,102689.78
2023-02-11T00:04:35.877Z,102697.63
2023-02-11T00:07:02.227Z,102694.94
2023-02-11T00:09:30.930Z,102694.03
2023-02-11T00:11:58.110Z,102697.47
2023-02-11T00:14:24.428Z,102679.94
2023-02-11T00:16:50.780Z,102692.19
2023-02-11T00:19:17.123Z,102685.16
2023-02-11T00:21:43.520Z,102685.13
2023-02-11T00:24:09.855Z,102690.38
2023-02-11T00:26:36.319Z,102692.13
2023-02-11T00:29:04.405Z,102695.66
2023-02-11T00:31:30.920Z,102689.41
2023-02-11T00:33:57.320Z,102683.19
2023-02-11T00:36:27.404Z,102680.50
2023-02-11T00:38:55.631Z,102673.38
2023-02-11T00:41:22.701Z,102671.56
2023-02-11T00:43:49.624Z,102686.47
2023-02-11T00:46:16.479Z,102673.31
2023-02-11T00:48:43.454Z,102665.34
2023-02-11T00:51:10.229Z,102669.72
2023-02-11T00:53:37.173Z,102667.00
2023-02-11T00:56:04.188Z,102673.13
2023-02-11T00:58:30.583Z,102656.38
2023-02-11T01:00:57.106Z,102673.06
2023-02-11T01:03:27.715Z,102653.66
2023-02-11T01:09:40.919Z,102655.25
2023-02-11T01:12:07.290Z,102666.69
2023-02-11T01:14:33.674Z,102659.56
2023-02-11T01:17:00.032Z,102649.03
2023-02-11T01:19:26.410Z,102657.00
2023-02-11T01:21:52.735Z,102649.00
2023-02-11T01:24:19.082Z,102660.38
2023-02-11T01:26:45.380Z,102654.22
2023-02-11T01:29:11.705Z,102654.28
2023-02-11T01:31:38.160Z,102655.19
2023-02-11T01:34:04.557Z,102660.47
2023-02-11T01:36:30.840Z,102647.28
2023-02-11T01:38:57.188Z,102646.34
2023-02-11T01:41:23.541Z,102649.03
2023-02-11T01:43:50.249Z,102653.31
2023-02-11T01:46:37.101Z,102641.00
2023-02-11T01:49:07.513Z,102637.56
2023-02-11T01:51:41.557Z,102633.09
2023-02-11T01:54:29.868Z,102633.94
2023-02-11T01:57:17.329Z,102626.97
2023-02-11T01:59:57.782Z,102613.84
2023-02-11T02:02:43.212Z,102612.88
2023-02-11T02:05:51.503Z,102606.72
2023-02-11T02:08:34.920Z,102605.75
2023-02-11T02:11:01.407Z,102598.69
2023-02-11T02:13:29.818Z,102605.72
2023-02-11T02:15:59.233Z,102596.03
2023-02-11T02:18:48.688Z,102594.19
2023-02-11T02:21:45.874Z,102589.78
2023-02-11T02:24:39.019Z,102584.53
2023-02-11T02:27:14.638Z,102590.66
2023-02-11T02:29:52.701Z,102585.34
2023-02-11T02:32:54.439Z,102585.44
2023-02-11T02:35:46.698Z,102580.97
2023-02-11T02:38:23.204Z,102582.72
2023-02-11T02:40:55.518Z,102583.63
2023-02-11T02:43:23.594Z,102574.78
2023-02-11T02:45:50.223Z,102576.50
2023-02-11T02:48:25.713Z,102581.78
2023-02-11T02:51:03.589Z,102582.66
2023-02-11T02:54:08.424Z,102583.50
2023-02-11T02:56:56.105Z,102602.84
2023-02-11T02:59:25.182Z,102606.41
2023-02-11T03:02:03.890Z,102608.09
2023-02-11T03:04:42.158Z,102612.63
2023-02-11T03:07:23.267Z,102611.00
2023-02-11T03:09:58.380Z,102589.91
2023-02-11T03:12:28.051Z,102584.63
2023-02-11T03:14:54.544Z,102584.59
2023-02-11T03:17:21.902Z,102578.41
2023-02-11T03:19:50.940Z,102573.97
2023-02-11T03:22:21.900Z,102577.50
2023-02-11T03:24:48.864Z,102582.84
2023-02-11T03:27:27.398Z,102588.06
2023-02-11T03:30:11.245Z,102588.09
2023-02-11T03:33:00.200Z,102589.00
2023-02-11T03:35:35.948Z,102592.56
2023-02-11T03:38:07.589Z,102580.34
2023-02-11T03:40:39.959Z,102569.69
2023-02-11T03:43:17.218Z,102565.22
2023-02-11T03:45:45.922Z,102566.13
2023-02-11T03:48:25.390Z,102565.25
2023-02-11T03:50:53.981Z,102550.28
2023-02-11T03:53:22.714Z,102548.50
2023-02-11T03:55:52.344Z,102535.38
2023-02-11T03:58:19.185Z,102528.28
2023-02-11T04:00:45.640Z,102520.47
2023-02-11T04:03:12.900Z,102508.13
2023-02-11T04:05:39.922Z,102502.00
2023-02-11T04:08:06.518Z,102496.78
2023-02-11T04:10:33.113Z,102492.31
2023-02-11T04:12:59.450Z,102484.38
2023-02-11T04:15:25.793Z,102486.22
2023-02-11T04:17:52.102Z,102487.16
2023-02-11T04:20:18.450Z,102498.47
2023-02-11T04:22:44.763Z,102494.16
2023-02-11T04:25:11.225Z,102515.31
2023-02-11T04:27:37.691Z,102531.16
2023-02-11T04:30:05.955Z,102526.78
2023-02-11T04:32:32.340Z,102523.28
2023-02-11T04:34:58.646Z,102530.31
2023-02-11T04:37:25.094Z,102527.69
2023-02-11T04:39:51.458Z,102539.09
2023-02-11T04:42:17.865Z,102530.25
2023-02-11T04:44:44.194Z,102543.44
2023-02-11T04:47:12.573Z,102539.09
2023-02-11T04:49:39.281Z,102537.25
2023-02-11T04:52:05.775Z,102544.28
2023-02-11T04:54:32.079Z,102542.59
2023-02-11T04:56:58.426Z,102550.47
2023-02-11T04:59:25.085Z,102547.81
2023-02-11T05:01:51.389Z,102541.59
2023-02-11T05:04:17.754Z,102524.84
2023-02-11T05:06:44.373Z,102523.91
2023-02-11T05:09:14.154Z,102524.84
2023-02-11T05:11:40.581Z,102530.13
2023-02-11T05:14:07.210Z,102525.63
2023-02-11T05:16:33.745Z,102532.78
2023-02-11T05:19:00.567Z,102526.59
2023-02-11T05:21:26.868Z,102523.13
2023-02-11T05:23:53.242Z,102505.47
2023-02-11T05:26:19.585Z,102487.16
2023-02-11T05:28:46.013Z,102493.34
2023-02-11T05:31:14.448Z,102495.19
2023-02-11T05:33:41.301Z,102494.38
2023-02-11T05:36:10.288Z,102491.66
2023-02-11T05:38:36.967Z,102493.34
2023-02-11T05:41:04.964Z,102500.44
2023-02-11T05:43:31.387Z,102495.19
2023-02-11T05:45:57.830Z,102493.41
2023-02-11T05:48:24.197Z,102494.28
2023-02-11T05:50:50.495Z,102501.34
2023-02-11T05:53:16.817Z,102505.72
2023-02-11T05:55:43.454Z,102508.28
2023-02-11T05:58:10.109Z,102522.41
2023-02-11T06:00:36.858Z,102521.53
2023-02-11T06:03:04.438Z,102518.06
2023-02-11T06:05:31.477Z,102521.50
2023-02-11T06:07:57.949Z,102525.03
2023-02-11T06:10:24.316Z,102529.44
2023-02-11T06:12:50.651Z,102537.28
2023-02-11T06:15:16.941Z,102534.69
2023-02-11T06:17:43.254Z,102531.16
2023-02-11T06:20:10.462Z,102528.53
2023-02-11T06:22:36.868Z,102523.22
2023-02-11T06:25:03.710Z,102522.31
2023-02-11T06:27:30.084Z,102525.69
2023-02-11T06:29:56.511Z,102521.31
2023-02-11T06:32:42.771Z,102531.84
2023-02-11T06:35:11.764Z,102532.78
2023-02-11T06:37:38.530Z,102534.47
2023-02-11T06:40:05.278Z,102536.25
2023-02-11T06:42:31.582Z,102523.84
2023-02-11T06:44:57.884Z,102526.59
2023-02-11T06:47:24.193Z,102523.97
2023-02-11T06:49:50.527Z,102521.34
2023-02-11T06:52:16.844Z,102531.03
2023-02-11T06:54:43.154Z,102531.03
2023-02-11T06:57:09.469Z,102536.38
2023-02-11T06:59:35.874Z,102531.91
2023-02-11T07:02:02.217Z,102523.13
2023-02-11T07:04:28.597Z,102522.16
2023-02-11T07:06:54.926Z,102527.38
2023-02-11T07:09:21.320Z,102529.22
2023-02-11T07:11:47.690Z,102528.34
2023-02-11T07:14:14.206Z,102533.56
2023-02-11T07:16:40.581Z,102526.47
2023-02-11T07:19:06.954Z,102510.72
2023-02-11T07:21:33.393Z,102518.56
2023-02-11T07:23:59.818Z,102528.19
2023-02-11T07:26:26.262Z,102526.47
2023-02-11T07:28:53.303Z,102512.34
2023-02-11T07:31:25.603Z,102522.09
2023-02-11T07:33:55.040Z,102519.44
2023-02-11T07:36:24.100Z,102528.97
2023-02-11T07:38:50.504Z,102532.50
2023-02-11T07:41:19.383Z,102528.91
2023-02-11T07:43:46.043Z,102518.19
2023-02-11T07:46:19.749Z,102529.56
2023-02-11T07:48:46.294Z,102526.91
2023-02-11T07:51:25.019Z,102520.59
2023-02-11T07:53:52.266Z,102522.22
2023-02-11T07:56:20.316Z,102537.16
2023-02-11T07:58:46.758Z,102542.38
2023-02-11T08:01:17.128Z,102547.59
2023-02-11T08:03:44.211Z,102549.28
2023-02-11T08:06:14.349Z,102538.50
2023-02-11T08:08:41.299Z,102541.09
2023-02-11T08:11:09.660Z,102548.06
2023-02-11T08:13:36.754Z,102550.59
2023-02-11T08:16:03.920Z,102552.41
2023-02-11T08:18:31.103Z,102552.25
2023-02-11T08:21:03.187Z,102551.31
2023-02-11T08:23:29.483Z,102555.59
2023-02-11T08:25:55.799Z,102553.69
2023-02-11T08:28:22.141Z,102557.16
2023-02-11T08:30:48.647Z,102552.63
2023-02-11T08:33:15.127Z,102554.50
2023-02-11T08:35:41.467Z,102565.03
2023-02-11T08:38:08.807Z,102570.25
2023-02-11T08:40:35.181Z,102571.81
2023-02-11T08:43:01.546Z,102567.41
2023-02-11T08:45:28.115Z,102570.03
2023-02-11T08:47:54.541Z,102574.28
2023-02-11T08:50:20.857Z,102580.25
2023-02-11T08:52:47.147Z,102573.16
2023-02-11T08:55:13.434Z,102578.09
2023-02-11T08:57:39.729Z,102576.16
2023-02-11T09:00:06.678Z,102576.03
2023-02-11T09:02:33.125Z,102580.38
2023-02-11T09:04:59.449Z,102584.78
2023-02-11T09:07:25.818Z,102581.88
2023-02-11T09:09:52.181Z,102588.56
2023-02-11T09:12:18.469Z,102590.84
2023-02-11T09:14:44.808Z,102600.22
2023-02-11T09:17:11.165Z,102589.41
2023-02-11T09:19:37.631Z,102589.28
2023-02-11T09:22:03.962Z,102590.69
2023-02-11T09:24:30.425Z,102586.84
2023-02-11T09:26:56.727Z,102591.09
2023-02-11T09:29:23.495Z,102588.78
2023-02-11T09:31:50.300Z,102592.81
2023-02-11T09:34:16.927Z,102602.84
2023-02-11T09:36:43.253Z,102603.06
2023-02-11T09:39:14.012Z,102614.50
2023-02-11T09:41:59.085Z,102612.16
2023-02-11T09:44:29.308Z,102611.84
2023-02-11T09:47:02.655Z,102608.19
2023-02-11T09:49:42.088Z,102613.50
2023-02-11T09:52:21.006Z,102616.13
2023-02-11T09:55:02.596Z,102619.22
2023-02-11T09:57:33.828Z,102615.31
2023-02-11T10:00:01.358Z,102615.66
2023-02-11T10:02:56.286Z,102615.66
2023-02-11T10:05:53.017Z,102622.00
2023-02-11T10:08:26.988Z,102617.31
2023-02-11T10:11:00.513Z,102615.16
2023-02-11T10:13:45.937Z,102609.72
2023-02-11T10:16:40.539Z,102605.94
2023-02-11T10:19:41.241Z,102603.13
2023-02-11T10:22:27.086Z,102600.16
2023-02-11T10:24:59.767Z,102598.19
2023-02-11T10:27:35.592Z,102602.19
2023-02-11T10:30:20.785Z,102591.22
2023-02-11T10:33:00.662Z,102593.69
2023-02-11T10:35:27.203Z,102588.97
2023-02-11T10:37:55.691Z,102577.44
2023-02-11T10:40:25.048Z,102595.81
2023-02-11T10:42:55.787Z,102594.69
2023-02-11T10:45:28.208Z,102603.16
2023-02-11T10:47:55.339Z,102602.75
2023-02-11T10:50:27.738Z,102600.72
2023-02-11T10:53:11.776Z,102598.88
2023-02-11T10:55:38.450Z,102593.47
2023-02-11T10:58:05.709Z,102585.72
2023-02-11T11:00:39.027Z,102592.78
2023-02-11T11:03:16.889Z,102593.78
2023-02-11T11:05:52.640Z,102586.34
2023-02-11T11:08:19.458Z,102584.00
2023-02-11T11:11:04.362Z,102587.22
2023-02-11T11:13:34.425Z,102584.09
2023-02-11T12:23:36.296Z,102567.81
2023-02-11T12:26:32.156Z,102565.97
2023-02-11T12:29:16.978Z,102556.06
2023-02-11T12:32:03.167Z,102553.91
2023-02-11T12:34:36.722Z,102551.84
2023-02-11T12:37:17.044Z,102553.66
2023-02-11T12:40:07.986Z,102560.56
2023-02-11T12:43:17.413Z,102560.16
2023-02-11T12:46:32.143Z,102554.53
2023-02-11T12:49:30.142Z,102554.41
2023-02-11T12:52:25.065Z,102556.53
2023-02-11T12:55:02.144Z,102555.34
2023-02-11T12:57:32.587Z,102544.34
2023-02-11T13:00:06.798Z,102536.38
2023-02-11T13:02:51.246Z,102542.19
2023-02-11T13:05:29.827Z,102551.28
2023-02-11T13:08:29.306Z,102544.81
2023-02-11T13:10:59.779Z,102538.59
2023-02-11T14:00:58.436Z,102522.97
2023-02-11T14:03:46.996Z,102525.06
2023-02-11T14:06:39.050Z,102535.84
2023-02-11T14:09:08.767Z,102529.34
2023-02-11T14:11:41.590Z,102527.22
2023-02-11T14:14:27.414Z,102520.47
2023-02-11T14:17:00.005Z,102516.00
2023-02-11T14:19:41.034Z,102511.59
2023-02-11T14:22:10.079Z,102518.16
2023-02-11T14:24:36.429Z,102512.16
2023-02-11T14:27:13.098Z,102509.41
2023-02-11T14:30:02.706Z,102525.50
2023-02-11T14:32:51.819Z,102523.88
2023-02-11T14:35:40.040Z,102516.97
2023-02-11T14:38:25.282Z,102518.00
2023-02-11T14:41:06.272Z,102520.75
2023-02-11T14:43:43.391Z,102518.00
2023-02-11T14:46:10.019Z,102528.75
2023-02-11T14:48:39.061Z,102530.50
2023-02-11T14:51:20.411Z,102530.78
2023-02-11T14:53:49.001Z,102535.38
2023-02-11T14:56:26.248Z,102538.19
2023-02-11T14:58:54.445Z,102527.50
2023-02-11T15:01:32.405Z,102542.50
2023-02-11T15:04:00.516Z,102531.91
2023-02-11T15:06:31.894Z,102539.91
2023-02-11T15:09:05.941Z,102538.97
2023-02-11T15:11:39.662Z,102548.72
2023-02-11T15:14:15.802Z,102536.22
2023-02-11T15:16:45.403Z,102543.25
2023-02-11T15:19:25.802Z,102537.78
2023-02-11T15:21:52.952Z,102539.03
2023-02-11T15:24:29.490Z,102541.88
2023-02-11T15:27:03.332Z,102544.69
2023-02-11T15:29:38.829Z,102551.22
2023-02-11T15:32:07.014Z,102556.38
2023-02-11T15:34:33.788Z,102550.34
2023-02-11T15:37:00.209Z,102551.53
2023-02-11T15:39:41.055Z,102550.81
2023-02-11T15:42:35.841Z,102556.94
2023-02-11T15:45:16.020Z,102553.78
2023-02-11T15:47:49.099Z,102566.25
2023-02-11T15:50:25.361Z,102558.78
2023-02-11T15:52:53.280Z,102566.13
2023-02-11T15:55:20.245Z,102562.09
2023-02-11T15:57:52.325Z,102562.31
2023-02-11T16:00:21.444Z,102565.88
2023-02-11T16:02:50.678Z,102568.75
2023-02-11T16:05:35.119Z,102569.59
2023-02-11T16:08:19.837Z,102576.88
2023-02-11T16:11:08.657Z,102577.97
2023-02-11T16:13:47.376Z,102576.03
2023-02-11T16:16:24.269Z,102571.84
2023-02-11T16:19:04.228Z,102574.59
2023-02-11T16:21:36.128Z,102577.34
2023-02-11T16:24:03.796Z,102568.59
2023-02-11T16:26:41.097Z,102581.94
2023-02-11T16:29:10.370Z,102583.91
2023-02-11T16:31:39.433Z,102586.78
2023-02-11T16:34:15.312Z,102586.06
2023-02-11T16:36:42.189Z,102586.06
2023-02-11T16:39:08.896Z,102591.09
2023-02-11T16:41:35.321Z,102594.91
2023-02-11T16:44:01.665Z,102591.38
2023-02-11T16:46:28.160Z,102599.50
2023-02-11T16:48:56.257Z,102593.25
2023-02-11T16:51:22.593Z,102595.13
2023-02-11T16:53:48.978Z,102599.44
2023-02-11T16:56:17.499Z,102590.75
2023-02-11T16:58:44.975Z,102600.47
2023-02-11T17:01:13.961Z,102604.00
2023-02-11T17:03:40.695Z,102594.28
2023-02-11T17:06:10.657Z,102602.28
2023-02-11T17:08:37.113Z,102610.34
2023-02-11T17:11:03.587Z,102598.13
2023-02-11T17:13:30.050Z,102604.44
2023-02-11T17:15:56.526Z,102601.06
2023-02-11T17:18:22.934Z,102600.19
2023-02-11T17:20:49.465Z,102602.88
2023-02-11T17:23:15.973Z,102610.00
2023-02-11T17:25:42.281Z,102618.81
2023-02-11T17:28:09.083Z,102619.72
2023-02-11T17:30:35.590Z,102618.81
2023-02-11T17:33:01.938Z,102618.84
2023-02-11T17:35:28.287Z,102622.31
2023-02-11T17:37:54.816Z,102626.63
2023-02-11T17:40:21.303Z,102617.13
2023-02-11T17:42:47.591Z,102617.19
2023-02-11T17:45:14.105Z,102631.50
2023-02-11T17:47:40.460Z,102633.34
2023-02-11T17:50:07.917Z,102628.06
2023-02-11T17:52:34.547Z,102631.66
2023-02-11T17:55:00.894Z,102631.72
2023-02-11T17:57:27.495Z,102631.66
2023-02-11T17:59:53.899Z,102630.69
2023-02-11T18:02:20.572Z,102643.03
2023-02-11T18:04:47.038Z,102634.09
2023-02-11T18:07:14.360Z,102639.31
2023-02-11T18:09:41.286Z,102649.97
2023-02-11T18:12:08.965Z,102644.69
2023-02-11T18:14:35.318Z,102643.94
2023-02-11T18:17:01.721Z,102643.13
2023-02-11T18:19:30.547Z,102645.78
2023-02-11T18:22:00.540Z,102652.91
2023-02-11T18:24:27.409Z,102650.38
2023-02-11T18:26:53.811Z,102650.31
2023-02-11T18:29:20.212Z,102646.09
2023-02-11T18:31:46.619Z,102654.06
2023-02-11T18:34:13.172Z,102653.22
2023-02-11T18:36:39.584Z,102653.16
2023-02-11T18:39:06.363Z,102654.06
2023-02-11T18:41:32.909Z,102654.09
2023-02-11T18:44:02.559Z,102654.09
2023-02-11T18:46:29.492Z,102646.34
2023-02-11T18:48:56.376Z,102644.38
2023-02-11T18:51:23.180Z,102640.91
2023-02-11T18:53:49.572Z,102643.63
2023-02-11T18:56:20.125Z,102638.38
2023-02-11T18:58:47.105Z,102641.03
2023-02-11T19:01:20.786Z,102645.31
2023-02-11T19:03:48.142Z,102638.34
2023-02-11T19:06:25.285Z,102652.31
2023-02-11T19:08:52.650Z,102650.63
2023-02-11T19:11:19.795Z,102651.44
2023-02-11T19:13:47.787Z,102656.69
2023-02-11T19:16:16.688Z,102662.00
2023-02-11T19:18:43.106Z,102663.91
2023-02-11T19:21:10.865Z,102677.34
2023-02-11T19:23:38.169Z,102671.13
2023-02-11T19:26:06.159Z,102668.59
2023-02-11T19:28:32.995Z,102669.59
2023-02-11T19:31:06.146Z,102670.59
2023-02-11T19:33:32.722Z,102682.31
2023-02-11T19:36:04.998Z,102684.91
2023-02-11T19:38:31.327Z,102682.31
2023-02-11T19:40:58.223Z,102691.22
2023-02-11T19:43:25.679Z,102684.16
2023-02-11T19:45:55.648Z,102680.72
2023-02-11T19:48:23.180Z,102682.56
2023-02-11T19:50:49.830Z,102689.69
2023-02-11T19:53:16.226Z,102694.22
2023-02-11T19:55:42.568Z,102696.88
2023-02-11T19:58:08.906Z,102699.53
2023-02-11T20:00:35.249Z,102693.28
2023-02-11T20:03:01.658Z,102688.69
2023-02-11T20:05:28.061Z,102687.91
2023-02-11T20:07:54.343Z,102688.06
2023-02-11T20:10:20.625Z,102683.50
2023-02-11T20:12:46.937Z,102689.81
2023-02-11T20:15:13.304Z,102686.34
2023-02-11T20:17:39.620Z,102681.00
2023-02-11T20:20:06.482Z,102687.19
2023-02-11T20:22:32.803Z,102681.19
2023-02-11T20:24:59.158Z,102694.63
2023-02-11T20:27:28.873Z,102696.56
2023-02-11T20:29:55.527Z,102708.31
2023-02-11T20:32:22.194Z,102704.84
2023-02-11T20:34:48.578Z,102706.69
2023-02-11T20:37:14.930Z,102698.84
2023-02-11T20:39:44.492Z,102694.56
2023-02-11T20:42:11.935Z,102694.78
2023-02-11T20:44:38.859Z,102693.13
2023-02-11T20:47:05.327Z,102700.34
2023-02-11T20:49:31.789Z,102699.53
2023-02-11T20:51:58.404Z,102699.56
2023-02-11T20:54:25.713Z,102693.31
2023-02-11T20:56:53.781Z,102685.53
2023-02-11T20:59:20.981Z,102686.53
2023-02-11T21:01:49.888Z,102692.72
2023-02-11T21:04:20.134Z,102688.44
2023-02-11T21:06:49.665Z,102690.31
2023-02-11T21:09:21.674Z,102689.38
2023-02-11T21:11:49.254Z,102688.44
2023-02-11T21:14:15.606Z,102681.44
2023-02-11T21:16:42.152Z,102677.94
2023-02-11T21:19:08.453Z,102679.06
2023-02-11T21:21:36.798Z,102667.56
2023-02-11T21:24:04.129Z,102674.91
2023-02-11T21:26:30.423Z,102683.00
2023-02-11T21:28:56.816Z,102689.28
2023-02-11T21:31:29.164Z,102687.66
2023-02-11T21:33:56.047Z,102694.81
2023-02-11T21:36:23.872Z,102698.41
2023-02-11T21:38:50.431Z,102703.88
2023-02-11T21:41:17.846Z,102702.16
2023-02-11T21:43:44.211Z,102695.09
2023-02-11T21:46:13.362Z,102705.06
2023-02-11T21:48:39.777Z,102710.72
2023-02-11T21:51:09.296Z,102715.28
2023-02-11T21:53:35.628Z,102709.19
2023-02-11T21:56:08.161Z,102724.44
2023-02-11T21:58:35.356Z,102727.09
2023-02-11T22:01:01.861Z,102722.75
2023-02-11T22:03:28.216Z,102721.97
2023-02-11T22:05:54.726Z,102731.78
2023-02-11T22:08:21.240Z,102726.66
2023-02-11T22:10:47.520Z,102735.53
2023-02-11T22:13:13.849Z,102745.25
2023-02-11T22:15:40.195Z,102742.63
2023-02-11T22:18:06.505Z,102747.94
2023-02-11T22:20:32.898Z,102747.91
2023-02-11T22:22:59.222Z,102747.91
2023-02-11T22:25:25.548Z,102747.81
2023-02-11T22:27:51.894Z,102740.72
2023-02-11T22:30:18.992Z,102745.91
2023-02-11T22:32:45.375Z,102737.06
2023-02-11T22:35:11.660Z,102726.34
2023-02-11T22:37:38.111Z,102723.63
2023-02-11T22:40:04.896Z,102724.50
2023-02-11T22:42:31.237Z,102729.75
2023-02-11T22:44:57.612Z,102732.34
2023-02-11T22:47:23.954Z,102719.06
2023-02-11T22:49:50.263Z,102719.03
2023-02-11T22:52:16.669Z,102722.56
2023-02-11T22:54:42.997Z,102723.38
2023-02-11T22:57:09.281Z,102725.94
2023-02-11T22:59:35.592Z,102725.97
2023-02-11T23:02:02.070Z,102731.34
2023-02-11T23:04:28.534Z,102736.59
2023-02-11T23:06:54.849Z,102737.41
2023-02-11T23:09:21.182Z,102735.53
2023-02-11T23:11:49.272Z,102733.81
2023-02-11T23:14:15.554Z,102748.91
2023-02-11T23:16:41.975Z,102755.09
2023-02-11T23:19:08.986Z,102748.97
2023-02-11T23:21:38.001Z,102751.63
2023-02-11T23:24:08.365Z,102756.22
2023-02-11T23:26:35.080Z,102754.47
2023-02-11T23:29:01.748Z,102751.88
2023-02-11T23:31:33.881Z,102760.72
2023-02-11T23:34:01.362Z,102756.28
2023-02-11T23:36:27.704Z,102742.13
2023-02-11T23:38:54.264Z,102752.53
2023-02-11T23:41:21.034Z,102747.44
2023-02-11T23:43:54.268Z,102751.88
2023-02-11T23:46:24.394Z,102759.84
2023-02-11T23:48:51.850Z,102753.47
2023-02-11T23:51:19.050Z,102749.94
2023-02-11T23:53:46.131Z,102751.88
2023-02-11T23:56:18.492Z,102757.97
2023-02-11T23:58:48.115Z,102762.31
